createdAt,value
2022-12-14T00:01:28.907Z,88.17
2022-12-14T00:03:56.350Z,88.63
2022-12-14T00:06:26.155Z,88.59
2022-12-14T00:08:54.943Z,88.94
2022-12-14T00:11:22.557Z,88.74
2022-12-14T00:13:57.574Z,88.47
2022-12-14T00:16:26.125Z,88.44
2022-12-14T00:18:55.216Z,87.97
2022-12-14T00:21:22.581Z,88.44
2022-12-14T00:23:50.760Z,88.49
2022-12-14T00:26:26.120Z,88.66
2022-12-14T00:28:54.397Z,88.35
2022-12-14T00:31:22.022Z,88.81
2022-12-14T00:33:48.815Z,88.86
2022-12-14T00:36:15.415Z,89.38
2022-12-14T00:38:42.731Z,88.85
2022-12-14T00:41:10.532Z,88.93
2022-12-14T00:43:37.489Z,88.83
2022-12-14T00:46:04.417Z,88.92
2022-12-14T00:48:31.935Z,88.92
2022-12-14T00:50:58.974Z,89.30
2022-12-14T00:53:25.678Z,88.80
2022-12-14T00:55:52.395Z,89.25
2022-12-14T00:58:21.826Z,88.96
2022-12-14T01:00:58.790Z,89.07
2022-12-14T01:03:25.790Z,88.94
2022-12-14T01:05:52.537Z,89.27
2022-12-14T01:08:20.723Z,89.65
2022-12-14T01:10:47.299Z,88.86
2022-12-14T01:13:13.859Z,88.23
2022-12-14T01:15:40.468Z,88.71
2022-12-14T01:18:07.103Z,88.88
2022-12-14T01:20:33.688Z,88.73
2022-12-14T01:23:00.340Z,89.16
2022-12-14T01:25:27.075Z,88.59
2022-12-14T01:27:53.554Z,88.54
2022-12-14T01:30:20.372Z,87.84
2022-12-14T01:32:47.369Z,88.28
2022-12-14T01:35:14.651Z,89.10
2022-12-14T01:37:41.330Z,88.76
2022-12-14T01:40:08.786Z,88.82
2022-12-14T01:42:36.745Z,88.78
2022-12-14T01:45:04.549Z,89.16
2022-12-14T01:47:43.093Z,89.25
2022-12-14T01:50:22.507Z,88.98
2022-12-14T01:52:51.747Z,88.62
2022-12-14T01:55:24.239Z,88.52
2022-12-14T01:58:05.531Z,88.42
2022-12-14T02:00:32.487Z,89.18
2022-12-14T02:03:10.898Z,89.03
2022-12-14T02:05:42.637Z,89.13
2022-12-14T02:08:09.823Z,88.23
2022-12-14T02:10:36.488Z,88.43
2022-12-14T02:13:09.969Z,88.78
2022-12-14T02:15:38.793Z,88.29
2022-12-14T02:18:07.921Z,88.67
2022-12-14T02:20:54.006Z,88.85
2022-12-14T02:23:36.037Z,88.77
2022-12-14T02:26:33.944Z,88.37
2022-12-14T02:29:21.876Z,88.10
2022-12-14T02:32:08.594Z,88.62
2022-12-14T02:34:53.575Z,87.91
2022-12-14T02:37:36.672Z,88.23
2022-12-14T02:40:32.523Z,88.77
2022-12-14T02:43:24.263Z,88.90
2022-12-14T02:46:16.367Z,88.37
2022-12-14T02:49:14.040Z,88.32
2022-12-14T02:51:58.482Z,88.20
2022-12-14T02:55:02.733Z,87.80
2022-12-14T02:58:00.392Z,87.10
2022-12-14T03:00:28.986Z,87.98
2022-12-14T03:02:57.300Z,87.76
2022-12-14T03:05:24.035Z,88.09
2022-12-14T03:07:57.543Z,87.68
2022-12-14T03:10:44.024Z,87.92
2022-12-14T03:13:23.907Z,87.53
2022-12-14T03:16:17.106Z,87.72
2022-12-14T03:19:11.134Z,87.86
2022-12-14T03:21:44.200Z,88.40
2022-12-14T03:24:19.395Z,88.34
2022-12-14T03:26:56.027Z,88.33
2022-12-14T03:29:32.708Z,88.07
2022-12-14T03:32:07.545Z,88.41
2022-12-14T03:34:52.675Z,88.29
2022-12-14T03:37:30.037Z,88.14
2022-12-14T03:39:56.686Z,88.01
2022-12-14T03:42:39.332Z,88.65
2022-12-14T03:45:21.604Z,88.26
2022-12-14T03:48:19.453Z,88.26
2022-12-14T03:51:24.952Z,87.62
2022-12-14T03:54:10.224Z,88.05
2022-12-14T03:56:53.363Z,87.31
2022-12-14T03:59:41.051Z,88.24
2022-12-14T04:02:23.827Z,88.63
2022-12-14T04:04:59.828Z,88.34
2022-12-14T04:07:57.734Z,88.61
2022-12-14T04:10:53.040Z,87.48
2022-12-14T04:13:44.045Z,87.60
2022-12-14T04:16:40.900Z,87.69
2022-12-14T04:19:16.184Z,87.61
2022-12-14T04:21:56.767Z,87.16
2022-12-14T04:24:54.883Z,87.64
2022-12-14T04:27:45.070Z,87.45
2022-12-14T04:30:12.858Z,87.61
2022-12-14T04:32:51.910Z,87.32
2022-12-14T04:35:25.658Z,87.65
2022-12-14T04:38:01.096Z,87.39
2022-12-14T04:40:33.490Z,87.86
2022-12-14T04:43:03.203Z,88.38
2022-12-14T04:45:39.496Z,86.94
2022-12-14T04:48:16.172Z,87.66
2022-12-14T04:50:49.269Z,87.84
2022-12-14T04:53:21.219Z,87.91
2022-12-14T04:56:05.715Z,87.97
2022-12-14T04:58:34.111Z,87.53
2022-12-14T05:01:49.001Z,87.55
2022-12-14T05:04:30.901Z,88.07
2022-12-14T05:07:43.829Z,87.08
2022-12-14T05:11:21.855Z,87.95
2022-12-14T05:13:49.558Z,87.91
2022-12-14T05:16:22.124Z,88.21
2022-12-14T05:18:49.641Z,88.54
2022-12-14T05:21:35.040Z,88.58
2022-12-14T05:24:03.909Z,88.83
2022-12-14T05:26:31.420Z,87.73
2022-12-14T05:28:58.026Z,88.86
2022-12-14T05:31:25.469Z,88.48
2022-12-14T05:33:52.044Z,88.64
2022-12-14T05:36:19.642Z,88.61
2022-12-14T05:38:46.687Z,88.72
2022-12-14T05:41:13.657Z,87.56
2022-12-14T05:43:40.393Z,87.64
2022-12-14T05:46:07.379Z,87.47
2022-12-14T05:48:35.042Z,87.09
2022-12-14T05:51:10.029Z,87.30
2022-12-14T05:53:37.257Z,87.74
2022-12-14T05:56:05.792Z,87.57
2022-12-14T05:58:33.771Z,87.22
2022-12-14T06:01:02.260Z,86.80
2022-12-14T06:03:29.373Z,86.34
2022-12-14T06:06:02.091Z,86.95
2022-12-14T06:08:30.787Z,87.22
2022-12-14T06:11:08.611Z,87.00
2022-12-14T06:13:36.493Z,86.71
2022-12-14T06:16:17.699Z,87.13
2022-12-14T06:18:50.700Z,86.55
2022-12-14T06:21:20.203Z,87.18
2022-12-14T06:23:47.244Z,86.72
2022-12-14T06:26:15.565Z,86.45
2022-12-14T06:28:42.479Z,86.74
2022-12-14T06:31:17.717Z,86.66
2022-12-14T06:33:44.779Z,86.38
2022-12-14T06:36:28.740Z,86.21
2022-12-14T06:38:56.969Z,86.37
2022-12-14T06:41:24.546Z,86.87
2022-12-14T06:43:52.321Z,86.87
2022-12-14T06:46:22.114Z,87.40
2022-12-14T06:48:53.480Z,87.52
2022-12-14T06:51:24.373Z,87.63
2022-12-14T06:53:53.320Z,87.65
2022-12-14T06:56:21.521Z,87.30
2022-12-14T06:58:48.525Z,87.09
2022-12-14T07:01:21.044Z,86.88
2022-12-14T07:03:49.396Z,87.51
2022-12-14T07:06:16.212Z,87.46
2022-12-14T07:08:43.184Z,86.80
2022-12-14T07:11:15.121Z,87.33
2022-12-14T07:13:42.327Z,86.74
2022-12-14T07:16:14.821Z,87.04
2022-12-14T07:18:41.446Z,87.28
2022-12-14T07:21:10.791Z,86.61
2022-12-14T07:23:38.546Z,86.11
2022-12-14T07:26:17.289Z,86.50
2022-12-14T07:28:45.293Z,85.95
2022-12-14T07:31:20.596Z,86.37
2022-12-14T07:33:47.776Z,86.49
2022-12-14T07:36:19.211Z,85.81
2022-12-14T07:38:47.927Z,85.67
2022-12-14T07:41:22.719Z,85.42
2022-12-14T07:43:50.801Z,86.02
2022-12-14T07:46:20.936Z,85.97
2022-12-14T07:48:52.914Z,85.50
2022-12-14T07:51:22.148Z,85.70
2022-12-14T07:53:48.855Z,85.38
2022-12-14T07:56:18.764Z,85.16
2022-12-14T07:58:45.576Z,85.52
2022-12-14T08:01:18.191Z,85.71
2022-12-14T08:03:50.198Z,85.52
2022-12-14T08:06:18.902Z,85.93
2022-12-14T08:08:45.877Z,85.68
2022-12-14T08:11:13.946Z,86.17
2022-12-14T08:13:40.875Z,85.42
2022-12-14T08:16:11.972Z,85.63
2022-12-14T08:18:38.618Z,85.39
2022-12-14T08:21:06.579Z,85.51
2022-12-14T08:23:34.478Z,84.47
2022-12-14T08:26:02.422Z,85.40
2022-12-14T08:28:31.109Z,85.05
2022-12-14T08:30:58.684Z,85.33
2022-12-14T08:33:25.401Z,85.53
2022-12-14T08:35:51.977Z,85.50
2022-12-14T08:38:18.597Z,85.55
2022-12-14T08:40:45.339Z,84.61
2022-12-14T08:43:12.145Z,84.22
2022-12-14T08:45:38.977Z,84.63
2022-12-14T08:48:05.740Z,84.81
2022-12-14T08:50:32.325Z,84.81
2022-12-14T08:52:59.328Z,84.82
2022-12-14T08:55:30.230Z,84.80
2022-12-14T08:57:59.136Z,84.58
2022-12-14T09:00:25.733Z,84.58
2022-12-14T09:02:52.541Z,84.23
2022-12-14T09:05:20.612Z,84.38
2022-12-14T09:07:47.254Z,84.56
2022-12-14T09:10:14.008Z,84.32
2022-12-14T09:12:40.532Z,83.88
2022-12-14T09:15:07.937Z,83.46
2022-12-14T09:17:34.648Z,83.57
2022-12-14T09:20:01.300Z,83.15
2022-12-14T09:22:27.981Z,83.04
2022-12-14T09:24:54.614Z,83.38
2022-12-14T09:27:22.481Z,82.75
2022-12-14T09:29:49.833Z,82.91
2022-12-14T09:32:17.049Z,83.14
2022-12-14T09:34:43.724Z,83.35
2022-12-14T09:37:10.559Z,83.23
2022-12-14T09:39:37.141Z,82.97
2022-12-14T09:42:18.991Z,83.64
2022-12-14T09:45:22.186Z,83.15
2022-12-14T09:48:01.965Z,83.80
2022-12-14T09:50:29.192Z,83.44
2022-12-14T09:53:00.273Z,83.29
2022-12-14T09:55:56.920Z,82.42
2022-12-14T09:58:32.720Z,82.51
2022-12-14T10:01:43.884Z,82.74
2022-12-14T10:04:47.840Z,82.11
2022-12-14T10:07:34.141Z,81.66
2022-12-14T10:10:53.405Z,81.83
2022-12-14T10:13:57.528Z,81.54
2022-12-14T10:16:59.573Z,81.65
2022-12-14T10:19:39.005Z,81.55
2022-12-14T10:22:18.780Z,82.66
2022-12-14T10:24:51.191Z,82.36
2022-12-14T10:27:26.505Z,82.42
2022-12-14T10:30:07.303Z,83.37
2022-12-14T10:32:39.624Z,82.58
2022-12-14T10:35:18.111Z,82.62
2022-12-14T10:37:48.766Z,83.71
2022-12-14T10:40:31.094Z,83.31
2022-12-14T10:43:43.669Z,83.06
2022-12-14T10:46:44.197Z,83.10
2022-12-14T10:49:17.418Z,83.23
2022-12-14T10:51:55.194Z,83.22
2022-12-14T10:54:48.457Z,81.81
2022-12-14T10:57:32.961Z,82.04
2022-12-14T11:00:09.711Z,82.57
2022-12-14T11:02:46.241Z,82.97
2022-12-14T11:05:40.048Z,82.73
2022-12-14T11:08:07.935Z,83.02
2022-12-14T11:10:36.961Z,82.80
2022-12-14T11:13:16.415Z,83.56
2022-12-14T11:15:46.486Z,83.64
2022-12-14T11:18:31.404Z,83.80
2022-12-14T11:21:01.000Z,83.40
2022-12-14T11:23:42.511Z,83.14
2022-12-14T11:26:40.641Z,83.40
2022-12-14T11:29:18.169Z,82.07
2022-12-14T11:31:47.158Z,81.59
2022-12-14T11:34:33.296Z,81.82
2022-12-14T11:37:39.618Z,82.06
2022-12-14T11:40:07.450Z,82.14
2022-12-14T11:42:34.330Z,82.01
2022-12-14T11:45:26.933Z,82.54
2022-12-14T11:48:20.493Z,82.69
2022-12-14T11:50:48.626Z,82.25
2022-12-14T11:53:17.637Z,82.81
2022-12-14T11:55:57.222Z,82.49
2022-12-14T11:58:38.048Z,82.25
2022-12-14T12:01:11.466Z,83.18
2022-12-14T12:03:42.427Z,82.83
2022-12-14T12:06:11.631Z,82.21
2022-12-14T12:08:40.961Z,82.48
2022-12-14T12:11:29.805Z,82.79
2022-12-14T12:14:12.100Z,82.16
2022-12-14T12:16:43.554Z,81.72
2022-12-14T12:19:18.984Z,81.90
2022-12-14T12:21:45.957Z,82.41
2022-12-14T12:24:27.046Z,83.02
2022-12-14T12:27:03.414Z,83.41
2022-12-14T12:29:38.151Z,83.04
2022-12-14T12:32:23.745Z,82.64
2022-12-14T12:35:11.423Z,82.60
2022-12-14T12:37:47.600Z,82.22
2022-12-14T12:40:33.055Z,82.84
2022-12-14T12:43:12.936Z,81.64
2022-12-14T12:45:51.436Z,81.45
2022-12-14T12:48:27.841Z,82.20
2022-12-14T12:51:04.173Z,81.35
2022-12-14T12:53:44.677Z,81.96
2022-12-14T12:56:15.730Z,82.04
2022-12-14T12:58:52.092Z,82.10
2022-12-14T13:01:33.623Z,82.69
2022-12-14T13:04:03.802Z,81.85
2022-12-14T13:06:34.662Z,82.78
2022-12-14T13:09:23.393Z,82.73
2022-12-14T13:11:50.151Z,83.18
2022-12-14T13:14:38.124Z,83.16
2022-12-14T13:17:07.693Z,83.16
2022-12-14T13:19:51.636Z,84.07
2022-12-14T13:22:31.908Z,83.66
2022-12-14T13:25:07.193Z,83.77
2022-12-14T13:28:02.115Z,83.23
2022-12-14T13:31:11.938Z,82.84
2022-12-14T13:34:12.354Z,83.84
2022-12-14T13:37:15.727Z,83.70
2022-12-14T13:40:34.168Z,83.56
2022-12-14T13:43:58.632Z,83.27
2022-12-14T13:46:29.245Z,83.18
2022-12-14T13:49:02.876Z,84.21
2022-12-14T13:51:34.305Z,83.97
2022-12-14T13:54:03.648Z,84.27
2022-12-14T13:56:34.119Z,84.29
2022-12-14T13:59:04.803Z,84.16
2022-12-14T14:01:53.203Z,84.98
2022-12-14T14:04:30.535Z,85.04
2022-12-14T14:07:42.608Z,85.60
2022-12-14T14:10:32.977Z,85.82
2022-12-14T14:13:01.741Z,86.46
2022-12-14T14:15:38.186Z,86.44
2022-12-14T14:18:14.398Z,85.85
2022-12-14T14:20:47.835Z,86.28
2022-12-14T14:23:36.227Z,86.12
2022-12-14T14:26:46.743Z,87.24
2022-12-14T14:29:26.551Z,86.99
2022-12-14T14:32:01.705Z,86.57
2022-12-14T14:34:49.780Z,85.57
2022-12-14T14:37:36.705Z,86.64
2022-12-14T14:40:29.444Z,86.76
2022-12-14T14:43:23.384Z,86.89
2022-12-14T14:45:54.282Z,86.46
2022-12-14T14:48:50.382Z,86.82
2022-12-14T14:51:25.248Z,87.02
2022-12-14T14:57:54.619Z,86.80
2022-12-14T15:00:22.911Z,86.68
2022-12-14T15:02:53.216Z,86.30
2022-12-14T15:05:42.168Z,86.34
2022-12-14T15:08:34.392Z,86.69
2022-12-14T15:11:06.167Z,86.31
2022-12-14T15:13:45.668Z,86.46
2022-12-14T15:16:23.839Z,86.04
2022-12-14T15:18:50.443Z,86.61
2022-12-14T15:21:18.536Z,86.37
2022-12-14T15:23:52.493Z,86.88
2022-12-14T15:26:24.413Z,88.33
2022-12-14T15:28:54.397Z,88.51
2022-12-14T15:31:30.610Z,89.11
2022-12-14T15:33:58.380Z,88.66
2022-12-14T15:36:30.572Z,87.95
2022-12-14T15:38:57.918Z,88.69
2022-12-14T15:41:27.693Z,88.69
2022-12-14T15:43:59.760Z,88.04
2022-12-14T15:46:31.289Z,87.70
2022-12-14T15:49:03.656Z,87.76
2022-12-14T15:51:37.290Z,87.65
2022-12-14T15:54:06.195Z,87.70
2022-12-14T15:56:43.939Z,87.73
2022-12-14T15:59:30.967Z,88.65
2022-12-14T16:02:38.151Z,89.19
2022-12-14T16:05:07.420Z,90.47
2022-12-14T16:07:38.937Z,91.04
2022-12-14T16:10:28.643Z,91.59
2022-12-14T16:13:02.149Z,90.81
2022-12-14T16:15:29.619Z,91.10
2022-12-14T16:18:02.090Z,91.37
2022-12-14T16:20:36.034Z,91.04
2022-12-14T16:23:41.781Z,90.72
2022-12-14T16:26:37.979Z,91.05
2022-12-14T16:29:23.115Z,91.23
2022-12-14T16:31:49.967Z,92.08
2022-12-14T16:34:23.468Z,92.87
2022-12-14T16:37:22.720Z,92.90
2022-12-14T16:39:39.573Z,92.26
2022-12-14T16:42:16.856Z,92.08
2022-12-14T16:44:43.568Z,92.31
2022-12-14T16:47:55.428Z,92.84
2022-12-14T16:53:23.103Z,92.10
2022-12-14T16:56:07.264Z,91.80
2022-12-14T16:58:35.949Z,91.81
2022-12-14T17:01:06.639Z,91.87
2022-12-14T17:03:35.916Z,92.29
2022-12-14T17:06:05.305Z,92.93
2022-12-14T17:08:33.549Z,93.75
2022-12-14T17:11:00.373Z,93.82
2022-12-14T17:13:27.156Z,93.22
2022-12-14T17:16:03.724Z,92.19
2022-12-14T17:18:35.306Z,92.21
2022-12-14T17:21:02.178Z,92.04
2022-12-14T17:23:29.328Z,91.72
2022-12-14T17:25:56.115Z,91.78
2022-12-14T17:28:29.271Z,91.74
2022-12-14T17:30:58.493Z,91.52
2022-12-14T17:33:28.057Z,92.32
2022-12-14T17:35:55.582Z,92.07
2022-12-14T17:38:23.355Z,92.12
2022-12-14T17:40:51.214Z,91.56
2022-12-14T17:43:20.938Z,92.09
2022-12-14T17:45:47.636Z,92.35
2022-12-14T17:48:14.943Z,92.16
2022-12-14T17:50:44.490Z,92.22
2022-12-14T17:53:19.618Z,93.35
2022-12-14T17:55:46.283Z,93.87
2022-12-14T17:58:13.923Z,93.60
2022-12-14T18:00:59.626Z,93.22
2022-12-14T18:03:26.665Z,93.81
2022-12-14T18:05:53.332Z,93.96
2022-12-14T18:08:21.208Z,93.83
2022-12-14T18:10:52.304Z,93.92
2022-12-14T18:13:18.911Z,94.49
2022-12-14T18:15:49.891Z,95.07
2022-12-14T18:18:18.715Z,94.83
2022-12-14T18:20:49.967Z,94.82
2022-12-14T18:23:17.945Z,94.96
2022-12-14T18:25:50.823Z,95.46
2022-12-14T18:28:17.321Z,94.71
2022-12-14T18:30:50.838Z,94.61
2022-12-14T18:33:20.655Z,94.24
2022-12-14T18:35:48.755Z,95.01
2022-12-14T18:38:15.447Z,95.71
2022-12-14T18:40:49.453Z,94.58
2022-12-14T18:43:23.468Z,95.33
2022-12-14T18:45:52.026Z,94.87
2022-12-14T18:48:18.903Z,94.35
2022-12-14T18:50:45.923Z,93.86
2022-12-14T18:53:18.062Z,93.65
2022-12-14T18:55:44.824Z,93.73
2022-12-14T18:58:24.300Z,93.81
2022-12-14T19:00:54.793Z,92.80
2022-12-14T19:03:22.489Z,94.03
2022-12-14T19:05:49.287Z,94.20
2022-12-14T19:08:15.871Z,93.82
2022-12-14T19:10:45.808Z,93.79
2022-12-14T19:13:25.043Z,95.63
2022-12-14T19:15:52.330Z,94.15
2022-12-14T19:18:18.930Z,93.43
2022-12-14T19:20:45.539Z,93.12
2022-12-14T19:23:18.340Z,92.98
2022-12-14T19:25:46.058Z,93.70
2022-12-14T19:28:31.293Z,94.53
2022-12-14T19:30:59.133Z,94.87
2022-12-14T19:33:26.801Z,93.72
2022-12-14T19:35:53.800Z,93.84
2022-12-14T19:38:20.411Z,93.48
2022-12-14T19:40:58.977Z,93.94
2022-12-14T19:43:25.573Z,93.40
2022-12-14T19:45:52.191Z,93.07
2022-12-14T19:48:18.811Z,93.28
2022-12-14T19:50:49.170Z,92.69
2022-12-14T19:53:21.605Z,92.03
2022-12-14T19:55:53.164Z,92.26
2022-12-14T19:58:21.975Z,92.86
2022-12-14T20:00:49.694Z,92.53
2022-12-14T20:03:16.732Z,92.21
2022-12-14T20:05:55.145Z,91.75
2022-12-14T20:08:22.718Z,91.92
2022-12-14T20:10:49.448Z,91.80
2022-12-14T20:13:16.108Z,92.04
2022-12-14T20:15:48.528Z,91.36
2022-12-14T20:18:15.112Z,92.66
2022-12-14T20:20:41.770Z,92.32
2022-12-14T20:23:08.364Z,92.15
2022-12-14T20:25:34.939Z,93.16
2022-12-14T20:28:02.710Z,92.70
2022-12-14T20:30:30.588Z,93.43
2022-12-14T20:32:57.590Z,93.86
2022-12-14T20:35:24.256Z,93.28
2022-12-14T20:37:53.713Z,93.07
2022-12-14T20:40:20.252Z,93.77
2022-12-14T20:42:46.782Z,93.25
2022-12-14T20:45:13.597Z,92.94
2022-12-14T20:47:40.184Z,92.66
2022-12-14T20:50:06.905Z,92.05
2022-12-14T20:52:33.539Z,92.42
2022-12-14T20:55:00.349Z,92.47
2022-12-14T20:57:26.943Z,92.00
2022-12-14T20:59:53.810Z,92.61
2022-12-14T21:02:21.041Z,94.10
2022-12-14T21:04:47.679Z,95.69
2022-12-14T21:07:14.225Z,95.34
2022-12-14T21:09:40.751Z,95.05
2022-12-14T21:12:21.846Z,96.67
2022-12-14T21:14:53.071Z,97.05
2022-12-14T21:17:21.713Z,96.74
2022-12-14T21:19:48.363Z,97.36
2022-12-14T21:22:21.207Z,97.81
2022-12-14T21:25:05.777Z,97.97
2022-12-14T21:27:34.499Z,99.04
2022-12-14T21:30:01.345Z,98.80
2022-12-14T21:32:28.180Z,99.42
2022-12-14T21:34:54.728Z,98.82
2022-12-14T21:37:22.004Z,99.42
2022-12-14T21:39:54.942Z,99.72
2022-12-14T21:42:25.398Z,100.00
2022-12-14T21:44:53.838Z,99.12
2022-12-14T21:47:23.651Z,99.27
2022-12-14T21:49:50.321Z,99.35
2022-12-14T21:52:19.983Z,100.00
2022-12-14T21:54:46.731Z,100.00
2022-12-14T21:57:36.842Z,99.30
2022-12-14T22:00:06.400Z,99.36
2022-12-14T22:02:33.238Z,99.87
2022-12-14T22:04:59.922Z,99.38
2022-12-14T22:07:30.876Z,99.98
2022-12-14T22:09:57.673Z,100.00
2022-12-14T22:12:24.211Z,100.00
2022-12-14T22:14:50.968Z,100.00
2022-12-14T22:17:17.821Z,100.00
2022-12-14T22:19:44.405Z,100.00
2022-12-14T22:22:17.168Z,99.52
2022-12-14T22:24:45.004Z,98.67
2022-12-14T22:27:12.714Z,99.27
2022-12-14T22:29:39.365Z,99.18
2022-12-14T22:32:07.219Z,98.61
2022-12-14T22:34:34.157Z,99.99
2022-12-14T22:37:00.768Z,100.00
2022-12-14T22:39:27.299Z,100.00
2022-12-14T22:41:53.836Z,100.00
2022-12-14T22:44:20.370Z,100.00
2022-12-14T22:46:46.923Z,100.00
2022-12-14T22:49:18.357Z,99.16
2022-12-14T22:51:45.445Z,98.13
2022-12-14T22:54:23.136Z,98.32
2022-12-14T22:57:02.805Z,98.51
2022-12-14T22:59:52.146Z,98.44
2022-12-14T23:02:18.946Z,98.56
2022-12-14T23:04:45.578Z,98.84
2022-12-14T23:07:16.741Z,98.56
2022-12-14T23:10:01.832Z,98.73
2022-12-14T23:12:47.157Z,97.63
2022-12-14T23:15:32.580Z,97.74
2022-12-14T23:18:22.021Z,97.11
2022-12-14T23:21:07.297Z,97.79
2022-12-14T23:23:52.792Z,98.38
2022-12-14T23:26:38.126Z,98.42
2022-12-14T23:29:23.586Z,99.09
2022-12-14T23:32:09.043Z,97.52
2022-12-14T23:34:54.343Z,96.33
2022-12-14T23:37:39.827Z,97.48
2022-12-14T23:40:25.648Z,97.66
2022-12-14T23:43:11.002Z,99.85
2022-12-14T23:45:56.315Z,99.96
2022-12-14T23:48:41.523Z,97.46
2022-12-14T23:51:26.920Z,98.79
2022-12-14T23:54:12.287Z,99.46
2022-12-14T23:56:57.702Z,100.00
2022-12-14T23:59:42.988Z,99.66
